PWSweather.com
Personal Weather Stations
Station Observations
OAK1E
Piedmont Ave District, Oakland, CA 94611

Piedmont Ave DistrictOakland, CA 94611

Lat: 37.832205, Lon: -122.250229

Elevation: 176

Station Type: Davis Vantage Pro 2

http://www.mayacamaswx.com/Oakland1E/Oakland1E.htm

Latest ConditionsUpdated 4:20:00 PM PDT Tuesday, Apr 21, 2015
Currently Today's Max Today's Min Today's Average
Temperature 56.1°F13.4°C 56.7°F13.7°C 52.0°F11.1°C 53.9°F12.2°C
Dew Point 50.7°F10.4°C 51.5°F10.8°C 49.5°F9.7°C 50.4°F10.2°C
Winds 0.3 mph WSW0.5 kmh WSW 0.9 mph WSW1.4 kmh WSW - 0.2 mph 0.3 kmh
Wind Gusts 1.0 mph1.6 kmh 4.0 mph6.4 kmh - -
Humidity 82% 92% 82% 88%
Pressure 29.88 in1011.9 mb 29.93 in1013.5 mb 29.86 in1011.2 mb -
Hour Temp Dew Point Humidity Winds Wind Gusts Pressure Precip Precip Rate Daily Precip Total
04:20 PM 56.1°F13.4°C 50.7°F10.4°C 82% 0.3 mph WSW0.5 kmh WSW 1.0 mph1.6 kmh 29.88 in1011.9 mb - 0.00 in0.0 mm 0.00 in0.0 mm
04:10 PM 56.2°F13.4°C 50.8°F10.4°C 82% 0.2 mph S0.3 kmh S 1.0 mph1.6 kmh 29.88 in1011.9 mb - 0.00 in0.0 mm 0.00 in0.0 mm
04:00 PM 56.2°F13.4°C 50.8°F10.4°C 82% Calm Calm -- 29.88 in1011.9 mb - 0.00 in0.0 mm 0.00 in0.0 mm
03:50 PM 56.1°F13.4°C 51.0°F10.6°C 83% Calm Calm -- 29.88 in1011.9 mb - 0.00 in0.0 mm 0.00 in0.0 mm
03:40 PM 55.9°F13.3°C 50.5°F10.3°C 82% 0.4 mph W0.6 kmh W 2.0 mph3.2 kmh 29.88 in1011.9 mb - 0.00 in0.0 mm 0.00 in0.0 mm
03:30 PM 55.7°F13.2°C 50.6°F10.3°C 83% 0.1 mph NW0.2 kmh NW 1.0 mph1.6 kmh 29.88 in1011.9 mb - 0.00 in0.0 mm 0.00 in0.0 mm
03:20 PM 55.4°F13.0°C 51.0°F10.6°C 85% 0.2 mph W0.3 kmh W 3.0 mph4.8 kmh 29.89 in1012.2 mb - 0.00 in0.0 mm 0.00 in0.0 mm
03:10 PM 55.3°F12.9°C 51.2°F10.7°C 86% 0.1 mph WNW0.2 kmh WNW 1.0 mph1.6 kmh 29.89 in1012.2 mb - 0.00 in0.0 mm 0.00 in0.0 mm
03:00 PM 55.6°F13.1°C 51.2°F10.7°C 85% 0.2 mph W0.3 kmh W 1.0 mph1.6 kmh 29.89 in1012.2 mb - 0.00 in0.0 mm 0.00 in0.0 mm
02:50 PM 56.0°F13.3°C 51.2°F10.7°C 84% 0.5 mph SW0.8 kmh SW 2.0 mph3.2 kmh 29.90 in1012.5 mb - 0.00 in0.0 mm 0.00 in0.0 mm
02:40 PM 56.6°F13.7°C 51.5°F10.8°C 83% 0.5 mph SSW0.8 kmh SSW 3.0 mph4.8 kmh 29.90 in1012.5 mb - 0.00 in0.0 mm 0.00 in0.0 mm
02:30 PM 56.7°F13.7°C 51.3°F10.7°C 82% Calm Calm -- 29.90 in1012.5 mb - 0.00 in0.0 mm 0.00 in0.0 mm
02:20 PM 56.6°F13.7°C 51.5°F10.8°C 83% 0.4 mph W0.6 kmh W 2.0 mph3.2 kmh 29.90 in1012.5 mb - 0.00 in0.0 mm 0.00 in0.0 mm
02:10 PM 56.5°F13.6°C 51.4°F10.8°C 83% 0.5 mph S0.8 kmh S 3.0 mph4.8 kmh 29.90 in1012.5 mb - 0.00 in0.0 mm 0.00 in0.0 mm
02:00 PM 56.3°F13.5°C 51.2°F10.7°C 83% Calm Calm -- 29.91 in1012.9 mb - 0.00 in0.0 mm 0.00 in0.0 mm
01:50 PM 56.1°F13.4°C 51.3°F10.7°C 84% 0.4 mph WSW0.6 kmh WSW 2.0 mph3.2 kmh 29.91 in1012.9 mb - 0.00 in0.0 mm 0.00 in0.0 mm
01:40 PM 56.2°F13.4°C 51.1°F10.6°C 83% 0.3 mph WSW0.5 kmh WSW 1.0 mph1.6 kmh 29.91 in1012.9 mb - 0.00 in0.0 mm 0.00 in0.0 mm
01:30 PM 56.2°F13.4°C 51.4°F10.8°C 84% 0.2 mph WSW0.3 kmh WSW 2.0 mph3.2 kmh 29.91 in1012.9 mb - 0.00 in0.0 mm 0.00 in0.0 mm
01:20 PM 55.9°F13.3°C 50.8°F10.4°C 83% 0.3 mph SW0.5 kmh SW 3.0 mph4.8 kmh 29.91 in1012.9 mb - 0.00 in0.0 mm 0.00 in0.0 mm
01:10 PM 55.8°F13.2°C 51.0°F10.6°C 84% Calm Calm 1.0 mph1.6 kmh 29.91 in1012.9 mb - 0.00 in0.0 mm 0.00 in0.0 mm
01:00 PM 55.6°F13.1°C 50.8°F10.4°C 84% 0.2 mph W0.3 kmh W 1.0 mph1.6 kmh 29.92 in1013.2 mb - 0.00 in0.0 mm 0.00 in0.0 mm
12:50 PM 55.5°F13.1°C 50.7°F10.4°C 84% 0.2 mph S0.3 kmh S 1.0 mph1.6 kmh 29.92 in1013.2 mb - 0.00 in0.0 mm 0.00 in0.0 mm
12:40 PM 55.5°F13.1°C 51.1°F10.6°C 85% 0.3 mph SSW0.5 kmh SSW 1.0 mph1.6 kmh 29.92 in1013.2 mb - 0.00 in0.0 mm 0.00 in0.0 mm
12:30 PM 55.6°F13.1°C 50.8°F10.4°C 84% 0.6 mph WSW1.0 kmh WSW 2.0 mph3.2 kmh 29.92 in1013.2 mb - 0.00 in0.0 mm 0.00 in0.0 mm
12:20 PM 55.4°F13.0°C 51.0°F10.6°C 85% Calm Calm -- 29.92 in1013.2 mb - 0.00 in0.0 mm 0.00 in0.0 mm
12:10 PM 55.4°F13.0°C 51.0°F10.6°C 85% 0.5 mph W0.8 kmh W 1.0 mph1.6 kmh 29.92 in1013.2 mb - 0.00 in0.0 mm 0.00 in0.0 mm
12:00 PM 55.5°F13.1°C 51.1°F10.6°C 85% 0.4 mph WSW0.6 kmh WSW 1.0 mph1.6 kmh 29.93 in1013.5 mb - 0.00 in0.0 mm 0.00 in0.0 mm
11:50 AM 55.4°F13.0°C 50.6°F10.3°C 84% 0.2 mph W0.3 kmh W 4.0 mph6.4 kmh 29.93 in1013.5 mb - 0.00 in0.0 mm 0.00 in0.0 mm
11:40 AM 55.3°F12.9°C 50.8°F10.4°C 85% Calm Calm 1.0 mph1.6 kmh 29.93 in1013.5 mb - 0.00 in0.0 mm 0.00 in0.0 mm
11:30 AM 55.1°F12.8°C 50.7°F10.4°C 85% 0.4 mph NW0.6 kmh NW 1.0 mph1.6 kmh 29.92 in1013.2 mb - 0.00 in0.0 mm 0.00 in0.0 mm
11:20 AM 54.9°F12.7°C 50.5°F10.3°C 85% 0.3 mph NW0.5 kmh NW 1.0 mph1.6 kmh 29.92 in1013.2 mb - 0.00 in0.0 mm 0.00 in0.0 mm
11:10 AM 54.6°F12.6°C 50.5°F10.3°C 86% Calm Calm 1.0 mph1.6 kmh 29.92 in1013.2 mb - 0.00 in0.0 mm 0.00 in0.0 mm
11:00 AM 54.5°F12.5°C 50.4°F10.2°C 86% Calm Calm 1.0 mph1.6 kmh 29.92 in1013.2 mb - 0.00 in0.0 mm 0.00 in0.0 mm
10:50 AM 54.2°F12.3°C 50.4°F10.2°C 87% 0.7 mph W1.1 kmh W 1.0 mph1.6 kmh 29.92 in1013.2 mb - 0.00 in0.0 mm 0.00 in0.0 mm
10:40 AM 54.1°F12.3°C 50.0°F10.0°C 86% 0.6 mph S1.0 kmh S 4.0 mph6.4 kmh 29.92 in1013.2 mb - 0.00 in0.0 mm 0.00 in0.0 mm
10:30 AM 54.2°F12.3°C 50.1°F10.1°C 86% 0.7 mph WSW1.1 kmh WSW 2.0 mph3.2 kmh 29.92 in1013.2 mb - 0.00 in0.0 mm 0.00 in0.0 mm
10:20 AM 54.1°F12.3°C 50.3°F10.2°C 87% 0.2 mph WSW0.3 kmh WSW 2.0 mph3.2 kmh 29.92 in1013.2 mb - 0.00 in0.0 mm 0.00 in0.0 mm
10:10 AM 54.0°F12.2°C 50.2°F10.1°C 87% Calm Calm -- 29.91 in1012.9 mb - 0.00 in0.0 mm 0.00 in0.0 mm
10:00 AM 53.9°F12.2°C 50.2°F10.1°C 87% Calm Calm -- 29.91 in1012.9 mb - 0.00 in0.0 mm 0.00 in0.0 mm
09:50 AM 53.9°F12.2°C 50.7°F10.4°C 89% 0.2 mph WSW0.3 kmh WSW 2.0 mph3.2 kmh 29.91 in1012.9 mb - 0.00 in0.0 mm 0.00 in0.0 mm
09:40 AM 53.6°F12.0°C 50.4°F10.2°C 89% 0.2 mph SW0.3 kmh SW 1.0 mph1.6 kmh 29.91 in1012.9 mb - 0.00 in0.0 mm 0.00 in0.0 mm
09:30 AM 53.4°F11.9°C 50.5°F10.3°C 90% 0.9 mph WSW1.4 kmh WSW 1.0 mph1.6 kmh 29.91 in1012.9 mb - 0.00 in0.0 mm 0.00 in0.0 mm
09:20 AM 53.2°F11.8°C 50.3°F10.2°C 90% 0.2 mph SE0.3 kmh SE 2.0 mph3.2 kmh 29.91 in1012.9 mb - 0.00 in0.0 mm 0.00 in0.0 mm
09:10 AM 53.0°F11.7°C 50.1°F10.1°C 90% Calm Calm -- 29.90 in1012.5 mb - 0.00 in0.0 mm 0.00 in0.0 mm
09:00 AM 52.9°F11.6°C 50.3°F10.2°C 91% 0.1 mph NNE0.2 kmh NNE -- 29.90 in1012.5 mb - 0.00 in0.0 mm 0.00 in0.0 mm
08:50 AM 52.7°F11.5°C 50.1°F10.1°C 91% Calm Calm -- 29.90 in1012.5 mb - 0.00 in0.0 mm 0.00 in0.0 mm
08:40 AM 52.6°F11.4°C 49.8°F9.9°C 90% 0.4 mph WSW0.6 kmh WSW 1.0 mph1.6 kmh 29.90 in1012.5 mb - 0.00 in0.0 mm 0.00 in0.0 mm
08:30 AM 52.6°F11.4°C 50.0°F10.0°C 91% Calm Calm 1.0 mph1.6 kmh 29.90 in1012.5 mb - 0.00 in0.0 mm 0.00 in0.0 mm
08:20 AM 52.5°F11.4°C 49.9°F9.9°C 91% Calm Calm -- 29.89 in1012.2 mb - 0.00 in0.0 mm 0.00 in0.0 mm
08:10 AM 52.4°F11.3°C 49.8°F9.9°C 91% 0.4 mph NW0.6 kmh NW 3.0 mph4.8 kmh 29.89 in1012.2 mb - 0.00 in0.0 mm 0.00 in0.0 mm
08:00 AM 52.3°F11.3°C 49.8°F9.9°C 91% Calm Calm 1.0 mph1.6 kmh 29.89 in1012.2 mb - 0.00 in0.0 mm 0.00 in0.0 mm
07:50 AM 52.2°F11.2°C 49.7°F9.8°C 91% 0.5 mph W0.8 kmh W 4.0 mph6.4 kmh 29.89 in1012.2 mb - 0.00 in0.0 mm 0.00 in0.0 mm
07:40 AM 52.1°F11.2°C 49.6°F9.8°C 91% 0.1 mph SW0.2 kmh SW -- 29.89 in1012.2 mb - 0.00 in0.0 mm 0.00 in0.0 mm
07:30 AM 52.1°F11.2°C 49.6°F9.8°C 91% Calm Calm -- 29.89 in1012.2 mb - 0.00 in0.0 mm 0.00 in0.0 mm
07:20 AM 52.0°F11.1°C 49.5°F9.7°C 91% Calm Calm 1.0 mph1.6 kmh 29.89 in1012.2 mb - 0.00 in0.0 mm 0.00 in0.0 mm
07:10 AM 52.0°F11.1°C 49.5°F9.7°C 91% 0.1 mph SW0.2 kmh SW -- 29.88 in1011.9 mb - 0.00 in0.0 mm 0.00 in0.0 mm
07:00 AM 52.0°F11.1°C 49.5°F9.7°C 91% 0.1 mph SW0.2 kmh SW -- 29.88 in1011.9 mb - 0.00 in0.0 mm 0.00 in0.0 mm
06:50 AM 52.0°F11.1°C 49.5°F9.7°C 91% Calm Calm -- 29.88 in1011.9 mb - 0.00 in0.0 mm 0.00 in0.0 mm
06:40 AM 52.0°F11.1°C 49.5°F9.7°C 91% Calm Calm 1.0 mph1.6 kmh 29.88 in1011.9 mb - 0.00 in0.0 mm 0.00 in0.0 mm
06:30 AM 52.0°F11.1°C 49.5°F9.7°C 91% 0.3 mph W0.5 kmh W 1.0 mph1.6 kmh 29.87 in1011.5 mb - 0.00 in0.0 mm 0.00 in0.0 mm
06:20 AM 52.1°F11.2°C 49.6°F9.8°C 91% 0.3 mph WSW0.5 kmh WSW 2.0 mph3.2 kmh 29.87 in1011.5 mb - 0.00 in0.0 mm 0.00 in0.0 mm
06:10 AM 52.2°F11.2°C 49.6°F9.8°C 91% 0.3 mph SE0.5 kmh SE 2.0 mph3.2 kmh 29.87 in1011.5 mb - 0.00 in0.0 mm 0.00 in0.0 mm
06:00 AM 52.2°F11.2°C 49.7°F9.8°C 91% 0.4 mph W0.6 kmh W 4.0 mph6.4 kmh 29.87 in1011.5 mb - 0.00 in0.0 mm 0.00 in0.0 mm
05:50 AM 52.2°F11.2°C 49.7°F9.8°C 91% Calm Calm 1.0 mph1.6 kmh 29.86 in1011.2 mb - 0.00 in0.0 mm 0.00 in0.0 mm
05:40 AM 52.2°F11.2°C 49.7°F9.8°C 91% 0.3 mph SE0.5 kmh SE 2.0 mph3.2 kmh 29.86 in1011.2 mb - 0.00 in0.0 mm 0.00 in0.0 mm
05:30 AM 52.1°F11.2°C 49.6°F9.8°C 91% 0.1 mph SW0.2 kmh SW 1.0 mph1.6 kmh 29.87 in1011.5 mb - 0.00 in0.0 mm 0.00 in0.0 mm
05:20 AM 52.1°F11.2°C 49.6°F9.8°C 91% Calm Calm -- 29.86 in1011.2 mb - 0.00 in0.0 mm 0.00 in0.0 mm
05:10 AM 52.1°F11.2°C 49.6°F9.8°C 91% Calm Calm 1.0 mph1.6 kmh 29.86 in1011.2 mb - 0.00 in0.0 mm 0.00 in0.0 mm
05:00 AM 52.1°F11.2°C 49.6°F9.8°C 91% Calm Calm -- 29.86 in1011.2 mb - 0.00 in0.0 mm 0.00 in0.0 mm
04:50 AM 52.1°F11.2°C 49.6°F9.8°C 91% 0.1 mph W0.2 kmh W 1.0 mph1.6 kmh 29.86 in1011.2 mb - 0.00 in0.0 mm 0.00 in0.0 mm
04:40 AM 52.2°F11.2°C 49.7°F9.8°C 91% Calm Calm -- 29.86 in1011.2 mb - 0.00 in0.0 mm 0.00 in0.0 mm
04:30 AM 52.2°F11.2°C 49.7°F9.8°C 91% 0.1 mph S0.2 kmh S 1.0 mph1.6 kmh 29.86 in1011.2 mb - 0.00 in0.0 mm 0.00 in0.0 mm
04:20 AM 52.4°F11.3°C 49.8°F9.9°C 91% 0.1 mph SW0.2 kmh SW 1.0 mph1.6 kmh 29.86 in1011.2 mb - 0.00 in0.0 mm 0.00 in0.0 mm
04:10 AM 52.5°F11.4°C 50.2°F10.1°C 92% Calm Calm 2.0 mph3.2 kmh 29.86 in1011.2 mb - 0.00 in0.0 mm 0.00 in0.0 mm
04:00 AM 52.5°F11.4°C 49.9°F9.9°C 91% Calm Calm -- 29.86 in1011.2 mb - 0.00 in0.0 mm 0.00 in0.0 mm
03:50 AM 52.6°F11.4°C 50.0°F10.0°C 91% Calm Calm -- 29.86 in1011.2 mb - 0.00 in0.0 mm 0.00 in0.0 mm
03:40 AM 52.7°F11.5°C 50.4°F10.2°C 92% 0.2 mph S0.3 kmh S 1.0 mph1.6 kmh 29.86 in1011.2 mb - 0.00 in0.0 mm 0.00 in0.0 mm
03:30 AM 52.7°F11.5°C 50.4°F10.2°C 92% 0.1 mph SW0.2 kmh SW -- 29.86 in1011.2 mb - 0.00 in0.0 mm 0.00 in0.0 mm
03:20 AM 52.7°F11.5°C 50.2°F10.1°C 91% 0.1 mph NW0.2 kmh NW 1.0 mph1.6 kmh 29.86 in1011.2 mb - 0.00 in0.0 mm 0.00 in0.0 mm
03:10 AM 52.8°F11.6°C 50.2°F10.1°C 91% Calm Calm -- 29.86 in1011.2 mb - 0.00 in0.0 mm 0.00 in0.0 mm
03:00 AM 52.8°F11.6°C 50.2°F10.1°C 91% Calm Calm -- 29.87 in1011.5 mb - 0.00 in0.0 mm 0.00 in0.0 mm
02:50 AM 52.9°F11.6°C 50.3°F10.2°C 91% Calm Calm 1.0 mph1.6 kmh 29.87 in1011.5 mb - 0.00 in0.0 mm 0.00 in0.0 mm
02:40 AM 53.0°F11.7°C 50.4°F10.2°C 91% Calm Calm -- 29.87 in1011.5 mb - 0.00 in0.0 mm 0.00 in0.0 mm
02:30 AM 53.0°F11.7°C 50.4°F10.2°C 91% Calm Calm -- 29.87 in1011.5 mb - 0.00 in0.0 mm 0.00 in0.0 mm
02:20 AM 53.1°F11.7°C 50.5°F10.3°C 91% 0.4 mph WSW0.6 kmh WSW 4.0 mph6.4 kmh 29.87 in1011.5 mb - 0.00 in0.0 mm 0.00 in0.0 mm
02:10 AM 53.3°F11.8°C 50.4°F10.2°C 90% 0.4 mph S0.6 kmh S 1.0 mph1.6 kmh 29.87 in1011.5 mb - 0.00 in0.0 mm 0.00 in0.0 mm
02:00 AM 53.5°F11.9°C 50.6°F10.3°C 90% 0.1 mph SSE0.2 kmh SSE -- 29.87 in1011.5 mb - 0.00 in0.0 mm 0.00 in0.0 mm
01:50 AM 53.8°F12.1°C 50.9°F10.5°C 90% 0.3 mph SSE0.5 kmh SSE -- 29.87 in1011.5 mb - 0.00 in0.0 mm 0.00 in0.0 mm
01:40 AM 53.9°F12.2°C 51.0°F10.6°C 90% 0.1 mph NNE0.2 kmh NNE 2.0 mph3.2 kmh 29.87 in1011.5 mb - 0.00 in0.0 mm 0.00 in0.0 mm
01:30 AM 53.9°F12.2°C 51.0°F10.6°C 90% Calm Calm 1.0 mph1.6 kmh 29.87 in1011.5 mb - 0.00 in0.0 mm 0.00 in0.0 mm
01:20 AM 54.0°F12.2°C 51.1°F10.6°C 90% Calm Calm -- 29.87 in1011.5 mb - 0.00 in0.0 mm 0.00 in0.0 mm
01:10 AM 54.0°F12.2°C 50.8°F10.4°C 89% Calm Calm 1.0 mph1.6 kmh 29.87 in1011.5 mb - 0.00 in0.0 mm 0.00 in0.0 mm
12:50 AM 54.2°F12.3°C 51.3°F10.7°C 90% Calm Calm -- 29.87 in1011.5 mb - 0.00 in0.0 mm 0.00 in0.0 mm
12:40 AM 54.2°F12.3°C 51.3°F10.7°C 90% Calm Calm -- 29.88 in1011.9 mb - 0.00 in0.0 mm 0.00 in0.0 mm
12:30 AM 54.2°F12.3°C 51.0°F10.6°C 89% Calm Calm -- 29.88 in1011.9 mb - 0.00 in0.0 mm 0.00 in0.0 mm
12:20 AM 54.3°F12.4°C 51.1°F10.6°C 89% Calm Calm 1.0 mph1.6 kmh 29.88 in1011.9 mb - 0.00 in0.0 mm 0.00 in0.0 mm
12:10 AM 54.3°F12.4°C 51.1°F10.6°C 89% Calm Calm 2.0 mph3.2 kmh 29.88 in1011.9 mb - 0.00 in0.0 mm 0.00 in0.0 mm
12:00 AM 54.3°F12.4°C 51.1°F10.6°C 89% Calm Calm -- 29.88 in1011.9 mb - 0.00 in0.0 mm 0.00 in0.0 mm